createdAt,value
2023-02-11T00:01:25.965Z,27.60
2023-02-11T00:03:52.932Z,27.70
2023-02-11T00:06:20.034Z,27.60
2023-02-11T00:08:47.742Z,27.90
2023-02-11T00:11:16.472Z,28.30
2023-02-11T00:13:44.377Z,28.30
2023-02-11T00:16:14.689Z,28.20
2023-02-11T00:18:41.612Z,28.00
2023-02-11T00:21:10.568Z,28.00
2023-02-11T00:23:38.135Z,28.00
2023-02-11T00:26:12.218Z,28.10
2023-02-11T00:28:39.113Z,27.90
2023-02-11T00:31:06.957Z,27.90
2023-02-11T00:33:33.859Z,28.00
2023-02-11T00:36:05.126Z,27.90
2023-02-11T00:38:31.975Z,27.90
2023-02-11T00:40:58.943Z,27.90
2023-02-11T00:43:26.060Z,27.80
2023-02-11T00:45:53.189Z,27.70
2023-02-11T00:48:20.197Z,27.60
2023-02-11T00:50:47.285Z,27.60
2023-02-11T00:53:14.177Z,27.50
2023-02-11T00:55:41.027Z,27.50
2023-02-11T00:58:07.907Z,28.10
2023-02-11T01:00:34.712Z,27.90
2023-02-11T01:03:01.596Z,28.20
2023-02-11T01:05:29.181Z,28.30
2023-02-11T01:07:56.147Z,28.30
2023-02-11T01:10:22.999Z,28.40
2023-02-11T01:12:49.937Z,28.30
2023-02-11T01:15:19.241Z,28.30
2023-02-11T01:17:46.092Z,28.20
2023-02-11T01:20:20.163Z,28.20
2023-02-11T01:22:46.856Z,28.10
2023-02-11T01:25:14.280Z,28.20
2023-02-11T01:27:41.283Z,28.10
2023-02-11T01:30:09.756Z,28.20
2023-02-11T01:32:36.867Z,28.30
2023-02-11T01:35:04.010Z,28.30
2023-02-11T01:37:33.640Z,28.40
2023-02-11T01:40:02.398Z,28.30
2023-02-11T01:42:29.549Z,28.30
2023-02-11T01:44:57.946Z,28.30
2023-02-11T01:47:24.767Z,28.40
2023-02-11T01:50:01.860Z,28.30
2023-02-11T01:52:31.980Z,28.30
2023-02-11T01:55:24.212Z,28.70
2023-02-11T01:57:57.891Z,28.80
2023-02-11T02:00:33.680Z,29.10
2023-02-11T02:03:22.712Z,29.30
2023-02-11T02:06:02.416Z,29.10
2023-02-11T02:08:43.963Z,28.80
2023-02-11T02:11:11.078Z,28.80
2023-02-11T02:13:37.959Z,29.00
2023-02-11T02:16:16.864Z,28.70
2023-02-11T02:19:20.495Z,28.60
2023-02-11T02:22:10.685Z,28.60
2023-02-11T02:24:56.813Z,28.60
2023-02-11T02:27:48.799Z,28.50
2023-02-11T02:30:46.354Z,28.60
2023-02-11T02:34:14.367Z,28.50
2023-02-11T02:36:58.585Z,28.40
2023-02-11T02:39:30.692Z,28.50
2023-02-11T02:41:58.186Z,28.40
2023-02-11T02:44:25.457Z,28.50
2023-02-11T02:46:52.405Z,28.40
2023-02-11T02:49:19.260Z,28.50
2023-02-11T02:52:08.744Z,28.60
2023-02-11T02:54:56.506Z,28.60
2023-02-11T02:57:41.672Z,28.60
2023-02-11T03:00:11.095Z,28.30
2023-02-11T03:03:02.138Z,28.30
2023-02-11T03:05:54.060Z,28.20
2023-02-11T03:08:35.316Z,28.20
2023-02-11T03:11:03.428Z,28.20
2023-02-11T03:13:34.282Z,28.20
2023-02-11T03:16:23.002Z,28.30
2023-02-11T03:19:02.180Z,28.50
2023-02-11T03:21:32.559Z,28.50
2023-02-11T03:24:05.898Z,28.50
2023-02-11T03:26:57.520Z,28.50
2023-02-11T03:29:52.071Z,28.40
2023-02-11T03:32:32.907Z,28.10
2023-02-11T03:35:13.819Z,28.10
2023-02-11T03:37:57.900Z,28.10
2023-02-11T03:40:32.645Z,28.10
2023-02-11T03:43:31.164Z,28.30
2023-02-11T03:46:00.399Z,28.30
2023-02-11T03:48:34.912Z,28.30
2023-02-11T03:51:05.616Z,28.20
2023-02-11T03:53:32.636Z,28.20
2023-02-11T03:56:05.375Z,28.30
2023-02-11T03:58:32.337Z,28.20
2023-02-11T04:00:59.241Z,28.30
2023-02-11T04:03:26.202Z,28.90
2023-02-11T04:05:53.148Z,29.40
2023-02-11T04:08:20.812Z,29.50
2023-02-11T04:10:47.716Z,29.60
2023-02-11T04:13:15.166Z,29.70
2023-02-11T04:15:41.999Z,29.70
2023-02-11T04:18:08.893Z,29.70
2023-02-11T04:20:35.736Z,29.90
2023-02-11T04:23:02.557Z,29.90
2023-02-11T04:25:29.567Z,29.90
2023-02-11T04:27:56.528Z,30.00
2023-02-11T04:30:23.573Z,30.00
2023-02-11T04:32:50.500Z,30.00
2023-02-11T04:35:17.424Z,30.00
2023-02-11T04:37:44.283Z,30.10
2023-02-11T04:40:11.471Z,30.20
2023-02-11T04:42:38.372Z,30.40
2023-02-11T04:45:05.465Z,30.40
2023-02-11T04:47:32.369Z,30.50
2023-02-11T04:49:59.300Z,30.60
2023-02-11T04:52:26.219Z,30.80
2023-02-11T04:54:53.118Z,30.90
2023-02-11T04:57:19.941Z,30.90
2023-02-11T04:59:46.747Z,30.90
2023-02-11T05:02:13.741Z,31.00
2023-02-11T05:04:40.538Z,30.80
2023-02-11T05:07:07.395Z,30.80
2023-02-11T05:09:34.284Z,30.70
2023-02-11T05:12:01.089Z,30.70
2023-02-11T05:14:27.903Z,30.70
2023-02-11T05:16:54.860Z,30.80
2023-02-11T05:19:21.779Z,31.00
2023-02-11T05:22:01.672Z,31.10
2023-02-11T05:24:29.457Z,31.30
2023-02-11T05:26:56.277Z,31.30
2023-02-11T05:29:23.263Z,31.40
2023-02-11T05:31:50.179Z,31.40
2023-02-11T05:34:16.981Z,31.30
2023-02-11T05:36:43.841Z,31.30
2023-02-11T05:39:10.720Z,31.40
2023-02-11T05:41:38.301Z,31.30
2023-02-11T05:44:05.186Z,31.30
2023-02-11T05:46:32.262Z,31.20
2023-02-11T05:48:59.260Z,31.20
2023-02-11T05:51:26.122Z,31.10
2023-02-11T05:53:53.563Z,31.00
2023-02-11T05:56:20.447Z,31.00
2023-02-11T05:58:47.299Z,31.00
2023-02-11T06:01:14.185Z,31.80
2023-02-11T06:03:41.122Z,30.90
2023-02-11T06:06:12.631Z,31.00
2023-02-11T06:08:40.175Z,31.00
2023-02-11T06:11:07.225Z,30.90
2023-02-11T06:13:34.160Z,30.90
2023-02-11T06:16:02.242Z,30.80
2023-02-11T06:18:29.637Z,30.70
2023-02-11T06:20:56.825Z,30.80
2023-02-11T06:23:23.782Z,31.10
2023-02-11T06:25:51.541Z,31.20
2023-02-11T06:28:19.186Z,31.30
2023-02-11T06:30:46.088Z,31.30
2023-02-11T06:33:12.937Z,31.30
2023-02-11T06:35:40.168Z,31.60
2023-02-11T06:38:07.320Z,31.70
2023-02-11T06:40:34.211Z,31.90
2023-02-11T06:43:01.072Z,32.10
2023-02-11T06:45:27.931Z,32.10
2023-02-11T06:47:54.899Z,32.10
2023-02-11T06:50:21.891Z,32.20
2023-02-11T06:52:48.724Z,32.30
2023-02-11T06:55:15.696Z,32.50
2023-02-11T06:57:42.592Z,32.60
2023-02-11T07:00:10.244Z,32.70
2023-02-11T07:02:37.220Z,32.80
2023-02-11T07:05:06.924Z,32.70
2023-02-11T07:07:34.443Z,32.70
2023-02-11T07:10:03.230Z,32.60
2023-02-11T07:12:30.830Z,32.60
2023-02-11T07:14:58.246Z,32.60
2023-02-11T07:17:25.174Z,32.70
2023-02-11T07:19:52.063Z,32.70
2023-02-11T07:22:19.008Z,32.80
2023-02-11T07:24:45.960Z,32.80
2023-02-11T07:27:12.916Z,32.80
2023-02-11T07:29:39.926Z,32.90
2023-02-11T07:32:06.882Z,33.00
2023-02-11T07:34:33.961Z,33.10
2023-02-11T07:37:00.880Z,33.10
2023-02-11T07:39:27.882Z,33.10
2023-02-11T07:41:55.005Z,33.20
2023-02-11T07:44:21.831Z,33.10
2023-02-11T07:46:49.390Z,33.10
2023-02-11T07:49:16.947Z,33.30
2023-02-11T07:51:44.181Z,33.60
2023-02-11T07:54:12.328Z,33.60
2023-02-11T07:56:39.257Z,33.80
2023-02-11T07:59:07.704Z,33.70
2023-02-11T08:01:34.661Z,34.00
2023-02-11T08:04:03.108Z,34.00
2023-02-11T08:06:32.667Z,34.00
2023-02-11T08:09:07.680Z,34.00
2023-02-11T08:11:34.791Z,34.00
2023-02-11T08:14:02.358Z,34.00
2023-02-11T08:16:34.470Z,33.70
2023-02-11T08:19:05.908Z,33.60
2023-02-11T08:21:32.837Z,33.50
2023-02-11T08:24:01.222Z,33.40
2023-02-11T08:26:30.009Z,33.40
2023-02-11T08:28:58.425Z,33.50
2023-02-11T08:31:28.589Z,33.70
2023-02-11T08:33:58.249Z,34.00
2023-02-11T08:36:32.376Z,34.50
2023-02-11T08:39:17.661Z,34.90
2023-02-11T08:41:48.932Z,35.00
2023-02-11T08:44:16.794Z,34.40
2023-02-11T08:46:43.661Z,34.00
2023-02-11T08:49:10.601Z,33.20
2023-02-11T08:51:37.528Z,32.10
2023-02-11T08:54:04.539Z,31.40
2023-02-11T08:56:33.189Z,30.60
2023-02-11T08:59:00.118Z,29.90
2023-02-11T09:01:31.435Z,29.10
2023-02-11T09:03:59.040Z,28.70
2023-02-11T09:06:27.286Z,28.00
2023-02-11T09:08:55.844Z,27.10
2023-02-11T09:11:28.909Z,26.50
2023-02-11T09:13:55.867Z,26.10
2023-02-11T09:16:28.557Z,25.70
2023-02-11T09:18:57.765Z,24.70
2023-02-11T09:21:25.165Z,23.90
2023-02-11T09:23:52.403Z,23.20
2023-02-11T09:26:26.514Z,23.20
2023-02-11T09:28:53.542Z,23.40
2023-02-11T09:31:23.009Z,23.20
2023-02-11T09:33:52.931Z,23.10
2023-02-11T09:36:22.987Z,23.30
2023-02-11T09:38:50.416Z,23.50
2023-02-11T09:41:33.322Z,23.60
2023-02-11T09:44:04.885Z,24.00
2023-02-11T09:46:41.419Z,24.20
2023-02-11T09:49:17.952Z,24.40
2023-02-11T09:51:50.106Z,24.40
2023-02-11T09:54:35.921Z,25.00
2023-02-11T09:57:02.929Z,25.80
2023-02-11T09:59:29.795Z,25.80
2023-02-11T10:02:11.756Z,26.00
2023-02-11T10:04:53.648Z,26.60
2023-02-11T10:07:48.602Z,25.80
2023-02-11T10:10:18.233Z,25.50
2023-02-11T10:13:40.830Z,25.30
2023-02-11T10:16:27.046Z,25.30
2023-02-11T10:19:18.860Z,25.00
2023-02-11T10:21:54.578Z,25.00
2023-02-11T10:24:22.315Z,25.10
2023-02-11T10:26:49.603Z,25.20
2023-02-11T10:29:33.703Z,25.40
2023-02-11T10:32:04.190Z,25.60
2023-02-11T10:34:32.935Z,25.80
2023-02-11T10:37:00.469Z,26.10
2023-02-11T10:39:28.249Z,26.50
2023-02-11T10:42:01.959Z,26.60
2023-02-11T10:44:59.880Z,26.60
2023-02-11T10:47:32.869Z,26.60
2023-02-11T10:50:03.697Z,26.90
2023-02-11T10:52:31.312Z,27.10
2023-02-11T10:55:16.513Z,27.40
2023-02-11T10:58:00.981Z,27.60
2023-02-11T11:00:40.162Z,28.10
2023-02-11T11:03:28.844Z,27.80
2023-02-11T11:05:59.830Z,28.00
2023-02-11T11:08:45.999Z,28.00
2023-02-11T11:11:15.445Z,28.20
2023-02-11T11:13:54.112Z,28.40
2023-02-11T11:16:25.158Z,28.20
2023-02-11T11:19:07.338Z,28.30
2023-02-11T11:21:43.014Z,28.30
2023-02-11T11:24:21.138Z,28.20
2023-02-11T11:26:57.336Z,28.20
2023-02-11T11:29:31.031Z,28.20
2023-02-11T11:32:05.589Z,28.10
2023-02-11T11:34:39.371Z,28.20
2023-02-11T11:37:32.220Z,28.10
2023-02-11T11:40:22.009Z,28.40
2023-02-11T11:43:05.743Z,28.10
2023-02-11T11:45:33.069Z,27.90
2023-02-11T11:48:14.711Z,28.00
2023-02-11T11:50:45.589Z,27.90
2023-02-11T11:53:24.055Z,27.80
2023-02-11T11:56:07.408Z,27.90
2023-02-11T11:58:35.247Z,27.80
2023-02-11T12:01:23.535Z,27.90
2023-02-11T12:04:09.155Z,27.90
2023-02-11T12:06:51.439Z,27.50
2023-02-11T12:09:55.648Z,27.60
2023-02-11T12:12:26.742Z,27.50
2023-02-11T12:15:35.272Z,27.00
2023-02-11T12:18:36.155Z,27.00
2023-02-11T12:21:29.573Z,27.10
2023-02-11T12:24:08.217Z,27.10
2023-02-11T12:26:49.674Z,26.70
2023-02-11T12:29:37.240Z,27.00
2023-02-11T12:32:09.924Z,26.50
2023-02-11T12:35:04.883Z,26.30
2023-02-11T12:37:47.562Z,26.50
2023-02-11T12:40:28.658Z,26.00
2023-02-11T12:43:18.496Z,25.90
2023-02-11T12:46:00.525Z,25.80
2023-02-11T12:48:35.824Z,25.50
2023-02-11T12:51:02.784Z,25.80
2023-02-11T12:54:07.543Z,26.00
2023-02-11T12:56:52.596Z,26.30
2023-02-11T12:59:51.033Z,25.80
2023-02-11T13:02:54.488Z,26.00
2023-02-11T13:05:45.412Z,26.00
2023-02-11T13:08:30.381Z,25.90
2023-02-11T13:11:16.166Z,25.90
2023-02-11T13:13:45.834Z,25.80
2023-02-11T13:16:37.132Z,25.70
2023-02-11T13:19:24.147Z,26.10
2023-02-11T13:22:02.894Z,26.00
2023-02-11T13:24:49.420Z,26.40
2023-02-11T13:27:48.096Z,26.50
2023-02-11T13:30:29.388Z,26.20
2023-02-11T13:32:56.531Z,26.20
2023-02-11T13:35:39.441Z,26.20
2023-02-11T13:38:28.039Z,26.20
2023-02-11T13:41:21.211Z,26.30
2023-02-11T13:44:01.495Z,26.00
2023-02-11T13:46:47.053Z,25.80
2023-02-11T13:49:36.243Z,25.50
2023-02-11T13:52:06.111Z,25.60
2023-02-11T13:54:37.538Z,25.10
2023-02-11T13:57:27.022Z,25.30
2023-02-11T14:00:02.553Z,25.20
2023-02-11T14:02:53.176Z,25.10
2023-02-11T14:05:50.261Z,25.20
2023-02-11T14:08:41.878Z,25.20
2023-02-11T14:11:28.901Z,25.10
2023-02-11T14:13:55.755Z,25.10
2023-02-11T14:16:37.047Z,24.20
2023-02-11T14:19:06.376Z,24.30
2023-02-11T14:21:40.378Z,24.10
2023-02-11T14:24:11.716Z,24.50
2023-02-11T14:26:51.188Z,24.40
2023-02-11T14:29:20.020Z,24.40
2023-02-11T14:31:58.992Z,24.60
2023-02-11T14:34:38.165Z,24.20
2023-02-11T14:37:29.392Z,24.40
2023-02-11T14:40:16.132Z,24.20
2023-02-11T14:42:43.113Z,24.20
2023-02-11T14:45:15.892Z,24.60
2023-02-11T14:47:52.694Z,24.70
2023-02-11T14:50:32.629Z,24.30
2023-02-11T14:53:02.123Z,24.10
2023-02-11T14:55:43.231Z,24.30
2023-02-11T14:58:17.807Z,24.50
2023-02-11T15:01:06.701Z,24.10
2023-02-11T15:03:42.335Z,24.10
2023-02-11T15:06:36.687Z,24.30
2023-02-11T15:09:25.558Z,24.40
2023-02-11T15:11:53.285Z,24.50
2023-02-11T15:14:26.723Z,24.60
2023-02-11T15:16:57.174Z,24.50
2023-02-11T15:19:34.373Z,24.70
2023-02-11T15:22:06.888Z,24.80
2023-02-11T15:24:35.533Z,25.00
2023-02-11T15:27:14.686Z,24.70
2023-02-11T15:29:50.691Z,24.60
2023-02-11T15:32:24.384Z,24.70
2023-02-11T15:34:53.398Z,24.40
2023-02-11T15:37:24.823Z,24.30
2023-02-11T15:39:52.596Z,24.30
2023-02-11T15:42:40.784Z,24.40
2023-02-11T15:45:13.809Z,24.30
2023-02-11T15:47:48.699Z,24.40
2023-02-11T15:50:22.165Z,24.40
2023-02-11T15:52:49.865Z,24.20
2023-02-11T15:55:17.964Z,24.30
2023-02-11T15:58:11.640Z,24.30
2023-02-11T16:00:47.277Z,24.30
2023-02-11T16:03:27.839Z,24.20
2023-02-11T16:05:56.573Z,24.30
2023-02-11T16:08:30.021Z,24.20
2023-02-11T16:10:58.776Z,24.20
2023-02-11T16:13:28.359Z,24.40
2023-02-11T16:16:04.051Z,24.40
2023-02-11T16:18:39.664Z,24.50
2023-02-11T16:21:14.934Z,24.70
2023-02-11T16:23:44.782Z,25.00
2023-02-11T16:26:41.023Z,25.00
2023-02-11T16:29:16.932Z,25.00
2023-02-11T16:31:47.393Z,24.90
2023-02-11T16:34:25.461Z,24.80
2023-02-11T16:36:53.039Z,24.80
2023-02-11T16:39:23.726Z,24.70
2023-02-11T16:41:52.285Z,24.80
2023-02-11T16:44:19.575Z,24.70
2023-02-11T16:46:46.632Z,24.70
2023-02-11T16:49:19.855Z,24.70
2023-02-11T16:51:49.637Z,24.70
2023-02-11T16:54:17.943Z,25.10
2023-02-11T16:56:45.059Z,24.90
2023-02-11T16:59:12.010Z,24.60
2023-02-11T17:01:40.813Z,24.60
2023-02-11T17:04:10.777Z,24.50
2023-02-11T17:06:37.671Z,24.50
2023-02-11T17:09:06.763Z,24.50
2023-02-11T17:11:33.641Z,24.60
2023-02-11T17:14:00.473Z,24.80
2023-02-11T17:16:29.946Z,24.90
2023-02-11T17:18:56.927Z,25.00
2023-02-11T17:21:27.633Z,25.00
2023-02-11T17:23:56.379Z,24.90
2023-02-11T17:26:23.217Z,24.70
2023-02-11T17:28:50.180Z,25.20
2023-02-11T17:31:17.157Z,24.60
2023-02-11T17:33:44.265Z,24.50
2023-02-11T17:36:11.289Z,24.40
2023-02-11T17:38:38.195Z,24.60
2023-02-11T17:41:05.506Z,24.80
2023-02-11T17:43:32.451Z,24.80
2023-02-11T17:45:59.403Z,24.90
2023-02-11T17:48:26.408Z,25.00
2023-02-11T17:50:53.301Z,25.10
2023-02-11T17:53:20.117Z,25.10
2023-02-11T17:55:47.007Z,25.00
2023-02-11T17:58:13.878Z,25.00
2023-02-11T18:00:40.857Z,24.90
2023-02-11T18:03:07.791Z,25.10
2023-02-11T18:05:37.239Z,25.10
2023-02-11T18:08:05.660Z,25.20
2023-02-11T18:10:33.637Z,25.10
2023-02-11T18:13:01.904Z,25.20
2023-02-11T18:15:28.826Z,25.20
2023-02-11T18:17:56.182Z,25.40
2023-02-11T18:20:23.463Z,25.30
2023-02-11T18:22:50.362Z,25.40
2023-02-11T18:25:18.791Z,25.40
2023-02-11T18:27:46.431Z,25.60
2023-02-11T18:30:18.296Z,25.70
2023-02-11T18:32:45.523Z,25.90
2023-02-11T18:35:15.203Z,25.90
2023-02-11T18:37:43.052Z,26.00
2023-02-11T18:40:11.174Z,26.00
2023-02-11T18:42:38.158Z,26.00
2023-02-11T18:45:09.560Z,26.20
2023-02-11T18:47:37.808Z,26.20
2023-02-11T18:50:06.133Z,26.20
2023-02-11T18:52:34.477Z,26.20
2023-02-11T18:55:03.303Z,26.20
2023-02-11T18:57:30.114Z,26.20
2023-02-11T18:59:56.973Z,26.10
2023-02-11T19:02:24.915Z,26.20
2023-02-11T19:04:51.949Z,26.20
2023-02-11T19:07:18.846Z,26.20
2023-02-11T19:09:45.752Z,26.10
2023-02-11T19:12:12.594Z,26.30
2023-02-11T19:14:39.520Z,26.40
2023-02-11T19:17:07.759Z,26.40
2023-02-11T19:19:36.444Z,26.40
2023-02-11T19:22:08.520Z,26.50
2023-02-11T19:24:37.309Z,26.60
2023-02-11T19:27:05.351Z,26.50
2023-02-11T19:29:35.137Z,26.50
2023-02-11T19:32:06.294Z,26.50
2023-02-11T19:34:42.608Z,26.60
2023-02-11T19:37:12.688Z,26.60
2023-02-11T19:39:40.536Z,26.80
2023-02-11T19:42:07.571Z,26.80
2023-02-11T19:44:34.462Z,27.00
2023-02-11T19:47:01.810Z,27.10
2023-02-11T19:49:28.900Z,27.00
2023-02-11T19:52:00.255Z,27.10
2023-02-11T19:54:30.007Z,27.20
2023-02-11T19:56:57.664Z,27.30
2023-02-11T19:59:24.855Z,27.40
2023-02-11T20:01:53.184Z,27.50
2023-02-11T20:04:20.200Z,27.70
2023-02-11T20:06:50.486Z,27.80
2023-02-11T20:09:17.427Z,28.00
2023-02-11T20:11:44.780Z,28.10
2023-02-11T20:14:14.861Z,28.30
2023-02-11T20:16:49.018Z,28.40
2023-02-11T20:19:21.926Z,28.50
2023-02-11T20:21:51.361Z,28.70
2023-02-11T20:24:19.169Z,28.60
2023-02-11T20:26:48.528Z,28.70
2023-02-11T20:29:18.812Z,28.90
2023-02-11T20:31:46.164Z,28.90
2023-02-11T20:34:13.225Z,28.90
2023-02-11T20:36:40.940Z,29.00
2023-02-11T20:39:08.481Z,28.90
2023-02-11T20:41:39.213Z,29.00
2023-02-11T20:44:08.413Z,28.80
2023-02-11T20:46:38.548Z,28.80
2023-02-11T20:49:05.949Z,28.80
2023-02-11T20:51:34.246Z,29.00
2023-02-11T20:54:01.585Z,29.20
2023-02-11T20:56:31.479Z,29.60
2023-02-11T20:59:00.643Z,29.80
2023-02-11T21:01:30.902Z,29.80
2023-02-11T21:04:03.607Z,29.90
2023-02-11T21:06:36.684Z,30.00
2023-02-11T21:09:05.904Z,30.00
2023-02-11T21:11:33.214Z,30.10
2023-02-11T21:14:00.732Z,30.20
2023-02-11T21:16:27.929Z,30.30
2023-02-11T21:18:55.472Z,30.30
2023-02-11T21:21:23.196Z,30.50
2023-02-11T21:23:50.543Z,30.60
2023-02-11T21:26:17.368Z,30.50
2023-02-11T21:28:44.414Z,30.40
2023-02-11T21:31:27.007Z,30.40
2023-02-11T21:33:59.429Z,30.60
2023-02-11T21:36:27.699Z,30.70
2023-02-11T21:38:54.803Z,30.90
2023-02-11T21:41:22.628Z,31.30
2023-02-11T21:43:50.657Z,31.20
2023-02-11T21:46:18.826Z,31.30
2023-02-11T21:48:45.891Z,31.30
2023-02-11T21:51:18.845Z,31.50
2023-02-11T21:53:46.240Z,31.50
2023-02-11T21:56:16.110Z,31.60
2023-02-11T21:58:43.766Z,31.80
2023-02-11T22:01:20.301Z,32.40
2023-02-11T22:03:47.455Z,32.70
2023-02-11T22:06:26.154Z,32.80
2023-02-11T22:08:54.750Z,33.00
2023-02-11T22:11:22.302Z,33.30
2023-02-11T22:13:56.556Z,33.60
2023-02-11T22:16:24.548Z,33.80
2023-02-11T22:18:51.932Z,33.90
2023-02-11T22:21:21.738Z,34.00
2023-02-11T22:23:48.900Z,34.00
2023-02-11T22:26:21.025Z,34.00
2023-02-11T22:28:48.451Z,34.10
2023-02-11T22:31:24.408Z,34.00
2023-02-11T22:33:52.025Z,33.80
2023-02-11T22:36:22.196Z,33.40
2023-02-11T22:38:49.864Z,33.50
2023-02-11T22:41:17.557Z,34.00
2023-02-11T22:43:44.855Z,34.30
2023-02-11T22:46:17.388Z,34.60
2023-02-11T22:48:44.539Z,35.00
2023-02-11T22:51:17.395Z,35.10
2023-02-11T22:53:44.627Z,35.60
2023-02-11T22:56:15.652Z,35.80
2023-02-11T22:58:43.139Z,36.10
2023-02-11T23:01:10.443Z,36.90
2023-02-11T23:03:37.441Z,36.30
2023-02-11T23:06:04.977Z,36.60
2023-02-11T23:08:32.816Z,36.60
2023-02-11T23:11:14.579Z,36.80
2023-02-11T23:13:43.097Z,36.80
2023-02-11T23:16:13.416Z,36.60
2023-02-11T23:18:42.195Z,36.80
2023-02-11T23:21:13.138Z,36.90
2023-02-11T23:23:40.107Z,37.10
2023-02-11T23:26:10.706Z,37.00
2023-02-11T23:28:37.945Z,37.20
2023-02-11T23:31:18.468Z,37.20
2023-02-11T23:33:46.419Z,37.20
2023-02-11T23:36:13.891Z,37.10
2023-02-11T23:38:40.861Z,36.90
2023-02-11T23:41:07.933Z,37.10
2023-02-11T23:43:34.824Z,37.20
2023-02-11T23:46:02.044Z,37.00
2023-02-11T23:48:28.940Z,36.90
2023-02-11T23:50:55.908Z,36.80
2023-02-11T23:53:22.835Z,36.70
2023-02-11T23:55:49.672Z,36.60
2023-02-11T23:58:16.632Z,36.50
